sensor_id;sensor_type;location;lat;lon;timestamp;temperature;humidity
15617;DHT22;7908;51.688;7.130;2023-08-30T00:02:02;14.10;99.90
15617;DHT22;7908;51.688;7.130;2023-08-30T00:04:32;14.00;99.90
15617;DHT22;7908;51.688;7.130;2023-08-30T00:07:00;13.90;99.90
15617;DHT22;7908;51.688;7.130;2023-08-30T00:09:29;13.90;99.90
15617;DHT22;7908;51.688;7.130;2023-08-30T00:11:58;13.80;99.90
15617;DHT22;7908;51.688;7.130;2023-08-30T00:14:27;13.70;99.90
15617;DHT22;7908;51.688;7.130;2023-08-30T00:16:55;13.70;99.90
15617;DHT22;7908;51.688;7.130;2023-08-30T00:19:24;13.60;99.90
15617;DHT22;7908;51.688;7.130;2023-08-30T00:21:54;13.60;99.90
15617;DHT22;7908;51.688;7.130;2023-08-30T00:24:24;13.50;99.90
15617;DHT22;7908;51.688;7.130;2023-08-30T00:26:52;13.50;99.90
15617;DHT22;7908;51.688;7.130;2023-08-30T00:29:21;13.40;99.90
15617;DHT22;7908;51.688;7.130;2023-08-30T00:31:49;13.40;99.90
15617;DHT22;7908;51.688;7.130;2023-08-30T00:34:18;13.30;99.90
15617;DHT22;7908;51.688;7.130;2023-08-30T00:36:47;13.30;99.90
15617;DHT22;7908;51.688;7.130;2023-08-30T00:39:17;13.30;99.90
15617;DHT22;7908;51.688;7.130;2023-08-30T00:41:45;13.30;99.90
15617;DHT22;7908;51.688;7.130;2023-08-30T00:44:14;13.30;99.90
15617;DHT22;7908;51.688;7.130;2023-08-30T00:46:43;13.30;99.90
15617;DHT22;7908;51.688;7.130;2023-08-30T00:49:11;13.30;99.90
15617;DHT22;7908;51.688;7.130;2023-08-30T00:51:40;13.30;99.90
15617;DHT22;7908;51.688;7.130;2023-08-30T00:54:09;13.30;99.90
15617;DHT22;7908;51.688;7.130;2023-08-30T00:56:39;13.30;99.90
15617;DHT22;7908;51.688;7.130;2023-08-30T00:59:08;13.30;99.90
15617;DHT22;7908;51.688;7.130;2023-08-30T01:01:38;13.30;99.90
15617;DHT22;7908;51.688;7.130;2023-08-30T01:04:08;13.20;99.90
15617;DHT22;7908;51.688;7.130;2023-08-30T01:06:37;13.20;99.90
15617;DHT22;7908;51.688;7.130;2023-08-30T01:09:06;13.10;99.90
15617;DHT22;7908;51.688;7.130;2023-08-30T01:11:42;13.10;99.90
15617;DHT22;7908;51.688;7.130;2023-08-30T01:14:15;13.10;99.90
15617;DHT22;7908;51.688;7.130;2023-08-30T01:16:46;13.00;99.90
15617;DHT22;7908;51.688;7.130;2023-08-30T01:19:29;13.00;99.90
15617;DHT22;7908;51.688;7.130;2023-08-30T01:22:08;13.00;99.90
15617;DHT22;7908;51.688;7.130;2023-08-30T01:24:45;12.90;99.90
15617;DHT22;7908;51.688;7.130;2023-08-30T01:27:18;12.90;99.90
15617;DHT22;7908;51.688;7.130;2023-08-30T01:29:49;12.90;99.90
15617;DHT22;7908;51.688;7.130;2023-08-30T01:32:18;12.80;99.90
15617;DHT22;7908;51.688;7.130;2023-08-30T01:34:49;12.90;99.90
15617;DHT22;7908;51.688;7.130;2023-08-30T01:37:19;12.90;99.90
15617;DHT22;7908;51.688;7.130;2023-08-30T01:39:48;12.90;99.90
15617;DHT22;7908;51.688;7.130;2023-08-30T01:42:19;12.90;99.90
15617;DHT22;7908;51.688;7.130;2023-08-30T01:44:50;12.80;99.90
15617;DHT22;7908;51.688;7.130;2023-08-30T01:47:23;12.80;99.90
15617;DHT22;7908;51.688;7.130;2023-08-30T01:49:52;12.80;99.90
15617;DHT22;7908;51.688;7.130;2023-08-30T01:52:22;12.80;99.90
15617;DHT22;7908;51.688;7.130;2023-08-30T01:54:51;12.70;99.90
15617;DHT22;7908;51.688;7.130;2023-08-30T01:57:21;12.70;99.90
15617;DHT22;7908;51.688;7.130;2023-08-30T01:59:50;12.70;99.90
15617;DHT22;7908;51.688;7.130;2023-08-30T02:02:19;12.60;99.90
15617;DHT22;7908;51.688;7.130;2023-08-30T02:04:48;12.60;99.90
15617;DHT22;7908;51.688;7.130;2023-08-30T02:07:20;12.50;99.90
15617;DHT22;7908;51.688;7.130;2023-08-30T02:09:54;12.40;99.90
15617;DHT22;7908;51.688;7.130;2023-08-30T02:12:30;12.30;99.90
15617;DHT22;7908;51.688;7.130;2023-08-30T02:15:02;12.30;99.90
15617;DHT22;7908;51.688;7.130;2023-08-30T02:17:32;12.30;99.90
15617;DHT22;7908;51.688;7.130;2023-08-30T02:20:00;12.30;99.90
15617;DHT22;7908;51.688;7.130;2023-08-30T02:22:31;12.30;99.90
15617;DHT22;7908;51.688;7.130;2023-08-30T02:25:00;12.40;99.90
15617;DHT22;7908;51.688;7.130;2023-08-30T02:27:33;12.40;99.90
15617;DHT22;7908;51.688;7.130;2023-08-30T02:30:02;12.50;99.90
15617;DHT22;7908;51.688;7.130;2023-08-30T02:32:30;12.50;99.90
15617;DHT22;7908;51.688;7.130;2023-08-30T02:34:59;12.60;99.90
15617;DHT22;7908;51.688;7.130;2023-08-30T02:37:27;12.60;99.90
15617;DHT22;7908;51.688;7.130;2023-08-30T02:39:56;12.60;99.90
15617;DHT22;7908;51.688;7.130;2023-08-30T02:42:24;12.60;99.90
15617;DHT22;7908;51.688;7.130;2023-08-30T02:44:55;12.60;99.90
15617;DHT22;7908;51.688;7.130;2023-08-30T02:47:23;12.70;99.90
15617;DHT22;7908;51.688;7.130;2023-08-30T02:49:52;12.80;99.90
15617;DHT22;7908;51.688;7.130;2023-08-30T02:52:20;12.80;99.90
15617;DHT22;7908;51.688;7.130;2023-08-30T02:54:49;12.80;99.90
15617;DHT22;7908;51.688;7.130;2023-08-30T02:57:17;12.80;99.90
15617;DHT22;7908;51.688;7.130;2023-08-30T02:59:46;12.70;99.90
15617;DHT22;7908;51.688;7.130;2023-08-30T03:02:15;12.70;99.90
15617;DHT22;7908;51.688;7.130;2023-08-30T03:04:44;12.70;99.90
15617;DHT22;7908;51.688;7.130;2023-08-30T03:07:13;12.70;99.90
15617;DHT22;7908;51.688;7.130;2023-08-30T03:09:41;12.70;99.90
15617;DHT22;7908;51.688;7.130;2023-08-30T03:12:09;12.70;99.90
15617;DHT22;7908;51.688;7.130;2023-08-30T03:14:38;12.60;99.90
15617;DHT22;7908;51.688;7.130;2023-08-30T03:17:06;12.50;99.90
15617;DHT22;7908;51.688;7.130;2023-08-30T03:19:36;12.50;99.90
15617;DHT22;7908;51.688;7.130;2023-08-30T03:22:05;12.50;99.90
15617;DHT22;7908;51.688;7.130;2023-08-30T03:24:33;12.50;99.90
15617;DHT22;7908;51.688;7.130;2023-08-30T03:27:03;12.50;99.90
15617;DHT22;7908;51.688;7.130;2023-08-30T03:29:31;12.50;99.90
15617;DHT22;7908;51.688;7.130;2023-08-30T03:31:59;12.50;99.90
15617;DHT22;7908;51.688;7.130;2023-08-30T03:34:28;12.40;99.90
15617;DHT22;7908;51.688;7.130;2023-08-30T03:36:58;12.40;99.90
15617;DHT22;7908;51.688;7.130;2023-08-30T03:39:27;12.30;99.90
15617;DHT22;7908;51.688;7.130;2023-08-30T03:41:55;12.30;99.90
15617;DHT22;7908;51.688;7.130;2023-08-30T03:44:25;12.20;99.90
15617;DHT22;7908;51.688;7.130;2023-08-30T03:46:53;12.20;99.90
15617;DHT22;7908;51.688;7.130;2023-08-30T03:49:24;12.20;99.90
15617;DHT22;7908;51.688;7.130;2023-08-30T03:51:52;12.20;99.90
15617;DHT22;7908;51.688;7.130;2023-08-30T03:54:22;12.20;99.90
15617;DHT22;7908;51.688;7.130;2023-08-30T03:56:50;12.20;99.90
15617;DHT22;7908;51.688;7.130;2023-08-30T03:59:19;12.20;99.90
15617;DHT22;7908;51.688;7.130;2023-08-30T04:01:52;12.10;99.90
15617;DHT22;7908;51.688;7.130;2023-08-30T04:04:21;12.10;99.90
15617;DHT22;7908;51.688;7.130;2023-08-30T04:06:49;12.10;99.90
15617;DHT22;7908;51.688;7.130;2023-08-30T04:09:18;12.20;99.90
15617;DHT22;7908;51.688;7.130;2023-08-30T04:11:48;12.30;99.90
15617;DHT22;7908;51.688;7.130;2023-08-30T04:14:16;12.40;99.90
15617;DHT22;7908;51.688;7.130;2023-08-30T04:16:44;12.40;99.90
15617;DHT22;7908;51.688;7.130;2023-08-30T04:19:13;12.50;99.90
15617;DHT22;7908;51.688;7.130;2023-08-30T04:21:42;12.60;99.90
15617;DHT22;7908;51.688;7.130;2023-08-30T04:24:10;12.60;99.90
15617;DHT22;7908;51.688;7.130;2023-08-30T04:26:39;12.70;99.90
15617;DHT22;7908;51.688;7.130;2023-08-30T04:29:09;12.80;99.90
15617;DHT22;7908;51.688;7.130;2023-08-30T04:31:37;12.80;99.90
15617;DHT22;7908;51.688;7.130;2023-08-30T04:34:06;12.80;99.90
15617;DHT22;7908;51.688;7.130;2023-08-30T04:36:34;12.80;99.90
15617;DHT22;7908;51.688;7.130;2023-08-30T04:39:07;12.80;99.90
15617;DHT22;7908;51.688;7.130;2023-08-30T04:41:36;12.70;99.90
15617;DHT22;7908;51.688;7.130;2023-08-30T04:44:05;12.60;99.90
15617;DHT22;7908;51.688;7.130;2023-08-30T04:46:34;12.50;99.90
15617;DHT22;7908;51.688;7.130;2023-08-30T04:49:03;12.40;99.90
15617;DHT22;7908;51.688;7.130;2023-08-30T04:51:32;12.30;99.90
15617;DHT22;7908;51.688;7.130;2023-08-30T04:54:00;12.20;99.90
15617;DHT22;7908;51.688;7.130;2023-08-30T04:56:29;12.20;99.90
15617;DHT22;7908;51.688;7.130;2023-08-30T04:58:58;12.10;99.90
15617;DHT22;7908;51.688;7.130;2023-08-30T05:01:26;12.10;99.90
15617;DHT22;7908;51.688;7.130;2023-08-30T05:03:56;12.10;99.90
15617;DHT22;7908;51.688;7.130;2023-08-30T05:06:25;12.10;99.90
15617;DHT22;7908;51.688;7.130;2023-08-30T05:08:54;12.10;99.90
15617;DHT22;7908;51.688;7.130;2023-08-30T05:11:22;12.10;99.90
15617;DHT22;7908;51.688;7.130;2023-08-30T05:13:53;12.20;99.90
15617;DHT22;7908;51.688;7.130;2023-08-30T05:16:22;12.30;99.90
15617;DHT22;7908;51.688;7.130;2023-08-30T05:18:51;12.40;99.90
15617;DHT22;7908;51.688;7.130;2023-08-30T05:21:21;12.40;99.90
15617;DHT22;7908;51.688;7.130;2023-08-30T05:23:49;12.50;99.90
15617;DHT22;7908;51.688;7.130;2023-08-30T05:26:17;12.60;99.90
15617;DHT22;7908;51.688;7.130;2023-08-30T05:28:46;12.60;99.90
15617;DHT22;7908;51.688;7.130;2023-08-30T05:31:15;12.70;99.90
15617;DHT22;7908;51.688;7.130;2023-08-30T05:33:43;12.70;99.90
15617;DHT22;7908;51.688;7.130;2023-08-30T05:36:12;12.80;99.90
15617;DHT22;7908;51.688;7.130;2023-08-30T05:38:45;12.80;99.90
15617;DHT22;7908;51.688;7.130;2023-08-30T05:41:14;12.90;99.90
15617;DHT22;7908;51.688;7.130;2023-08-30T05:43:43;12.90;99.90
15617;DHT22;7908;51.688;7.130;2023-08-30T05:46:11;13.00;99.90
15617;DHT22;7908;51.688;7.130;2023-08-30T05:48:42;13.00;99.90
15617;DHT22;7908;51.688;7.130;2023-08-30T05:51:10;13.10;99.90
15617;DHT22;7908;51.688;7.130;2023-08-30T05:53:39;13.10;99.90
15617;DHT22;7908;51.688;7.130;2023-08-30T05:56:09;13.10;99.90
15617;DHT22;7908;51.688;7.130;2023-08-30T05:58:37;13.20;99.90
15617;DHT22;7908;51.688;7.130;2023-08-30T06:01:08;13.20;99.90
15617;DHT22;7908;51.688;7.130;2023-08-30T06:03:39;13.20;99.90
15617;DHT22;7908;51.688;7.130;2023-08-30T06:06:08;13.20;99.90
15617;DHT22;7908;51.688;7.130;2023-08-30T06:08:37;13.30;99.90
15617;DHT22;7908;51.688;7.130;2023-08-30T06:11:06;13.30;99.90
15617;DHT22;7908;51.688;7.130;2023-08-30T06:13:36;13.30;99.90
15617;DHT22;7908;51.688;7.130;2023-08-30T06:16:04;13.30;99.90
15617;DHT22;7908;51.688;7.130;2023-08-30T06:18:33;13.30;99.90
15617;DHT22;7908;51.688;7.130;2023-08-30T06:21:02;13.30;99.90
15617;DHT22;7908;51.688;7.130;2023-08-30T06:23:32;13.40;99.90
15617;DHT22;7908;51.688;7.130;2023-08-30T06:26:01;13.40;99.90
15617;DHT22;7908;51.688;7.130;2023-08-30T06:28:33;13.60;99.90
15617;DHT22;7908;51.688;7.130;2023-08-30T06:31:05;13.70;99.90
15617;DHT22;7908;51.688;7.130;2023-08-30T06:33:35;13.80;99.90
15617;DHT22;7908;51.688;7.130;2023-08-30T06:36:06;13.80;99.90
15617;DHT22;7908;51.688;7.130;2023-08-30T06:38:34;13.90;99.90
15617;DHT22;7908;51.688;7.130;2023-08-30T06:41:03;13.90;99.90
15617;DHT22;7908;51.688;7.130;2023-08-30T06:43:31;14.00;99.90
15617;DHT22;7908;51.688;7.130;2023-08-30T06:46:01;14.10;99.90
15617;DHT22;7908;51.688;7.130;2023-08-30T06:48:31;14.20;99.90
15617;DHT22;7908;51.688;7.130;2023-08-30T06:51:00;14.30;99.90
15617;DHT22;7908;51.688;7.130;2023-08-30T06:53:31;14.40;99.90
15617;DHT22;7908;51.688;7.130;2023-08-30T06:56:00;14.60;99.90
15617;DHT22;7908;51.688;7.130;2023-08-30T06:58:29;14.70;99.90
15617;DHT22;7908;51.688;7.130;2023-08-30T07:00:58;14.90;99.90
15617;DHT22;7908;51.688;7.130;2023-08-30T07:03:27;15.00;99.90
15617;DHT22;7908;51.688;7.130;2023-08-30T07:05:59;15.20;99.90
15617;DHT22;7908;51.688;7.130;2023-08-30T07:08:28;15.40;99.90
15617;DHT22;7908;51.688;7.130;2023-08-30T07:11:00;15.60;99.90
15617;DHT22;7908;51.688;7.130;2023-08-30T07:13:31;16.00;99.90
15617;DHT22;7908;51.688;7.130;2023-08-30T07:15:59;15.80;99.90
15617;DHT22;7908;51.688;7.130;2023-08-30T07:18:28;15.80;99.90
15617;DHT22;7908;51.688;7.130;2023-08-30T07:21:01;15.80;99.90
15617;DHT22;7908;51.688;7.130;2023-08-30T07:23:34;15.80;99.90
15617;DHT22;7908;51.688;7.130;2023-08-30T07:26:02;15.80;99.90
15617;DHT22;7908;51.688;7.130;2023-08-30T07:28:32;15.90;99.90
15617;DHT22;7908;51.688;7.130;2023-08-30T07:31:03;15.90;99.90
15617;DHT22;7908;51.688;7.130;2023-08-30T07:33:32;16.00;99.90
15617;DHT22;7908;51.688;7.130;2023-08-30T07:36:03;16.00;99.90
15617;DHT22;7908;51.688;7.130;2023-08-30T07:38:32;16.10;99.90
15617;DHT22;7908;51.688;7.130;2023-08-30T07:41:01;16.20;99.90
15617;DHT22;7908;51.688;7.130;2023-08-30T07:43:31;16.30;99.90
15617;DHT22;7908;51.688;7.130;2023-08-30T07:46:00;16.40;99.90
15617;DHT22;7908;51.688;7.130;2023-08-30T07:48:29;16.50;99.90
15617;DHT22;7908;51.688;7.130;2023-08-30T07:50:58;16.60;99.90
15617;DHT22;7908;51.688;7.130;2023-08-30T07:53:29;16.70;99.90
15617;DHT22;7908;51.688;7.130;2023-08-30T07:56:04;16.70;99.90
15617;DHT22;7908;51.688;7.130;2023-08-30T07:58:34;16.90;99.90
15617;DHT22;7908;51.688;7.130;2023-08-30T08:01:02;17.00;99.90
15617;DHT22;7908;51.688;7.130;2023-08-30T08:03:31;17.10;99.90
15617;DHT22;7908;51.688;7.130;2023-08-30T08:06:02;17.30;99.90
15617;DHT22;7908;51.688;7.130;2023-08-30T08:08:33;17.40;99.90
15617;DHT22;7908;51.688;7.130;2023-08-30T08:11:02;17.50;99.90
15617;DHT22;7908;51.688;7.130;2023-08-30T08:13:33;17.60;99.90
15617;DHT22;7908;51.688;7.130;2023-08-30T08:16:02;17.70;99.90
15617;DHT22;7908;51.688;7.130;2023-08-30T08:18:32;17.60;99.90
15617;DHT22;7908;51.688;7.130;2023-08-30T08:21:00;17.60;99.90
15617;DHT22;7908;51.688;7.130;2023-08-30T08:23:33;17.70;99.90
15617;DHT22;7908;51.688;7.130;2023-08-30T08:26:07;17.70;99.90
15617;DHT22;7908;51.688;7.130;2023-08-30T08:28:39;17.80;99.90
15617;DHT22;7908;51.688;7.130;2023-08-30T08:31:08;18.00;99.90
15617;DHT22;7908;51.688;7.130;2023-08-30T08:33:37;18.10;99.90
15617;DHT22;7908;51.688;7.130;2023-08-30T08:36:06;18.20;99.90
15617;DHT22;7908;51.688;7.130;2023-08-30T08:38:36;18.30;99.90
15617;DHT22;7908;51.688;7.130;2023-08-30T08:41:07;18.40;99.90
15617;DHT22;7908;51.688;7.130;2023-08-30T08:43:42;18.40;99.90
15617;DHT22;7908;51.688;7.130;2023-08-30T08:46:13;18.50;99.90
15617;DHT22;7908;51.688;7.130;2023-08-30T08:48:45;18.50;99.90
15617;DHT22;7908;51.688;7.130;2023-08-30T08:51:16;18.60;99.90
15617;DHT22;7908;51.688;7.130;2023-08-30T08:53:47;18.70;99.90
15617;DHT22;7908;51.688;7.130;2023-08-30T08:56:17;18.60;99.90
15617;DHT22;7908;51.688;7.130;2023-08-30T08:58:46;18.60;99.90
15617;DHT22;7908;51.688;7.130;2023-08-30T09:01:16;18.50;99.90
15617;DHT22;7908;51.688;7.130;2023-08-30T09:04:03;18.50;99.90
15617;DHT22;7908;51.688;7.130;2023-08-30T09:06:33;18.60;99.90
15617;DHT22;7908;51.688;7.130;2023-08-30T09:09:07;18.70;99.90
15617;DHT22;7908;51.688;7.130;2023-08-30T09:11:37;18.90;99.90
15617;DHT22;7908;51.688;7.130;2023-08-30T09:14:17;19.00;99.90
15617;DHT22;7908;51.688;7.130;2023-08-30T09:16:55;19.20;99.90
15617;DHT22;7908;51.688;7.130;2023-08-30T09:19:24;19.20;99.90
15617;DHT22;7908;51.688;7.130;2023-08-30T09:21:54;19.40;99.90
15617;DHT22;7908;51.688;7.130;2023-08-30T09:24:25;19.50;99.90
15617;DHT22;7908;51.688;7.130;2023-08-30T09:26:54;19.60;99.90
15617;DHT22;7908;51.688;7.130;2023-08-30T09:29:23;19.60;99.90
15617;DHT22;7908;51.688;7.130;2023-08-30T09:31:52;19.50;99.90
15617;DHT22;7908;51.688;7.130;2023-08-30T09:34:23;19.40;99.90
15617;DHT22;7908;51.688;7.130;2023-08-30T09:36:55;19.20;99.90
15617;DHT22;7908;51.688;7.130;2023-08-30T09:39:28;19.20;99.90
15617;DHT22;7908;51.688;7.130;2023-08-30T09:42:01;19.10;99.90
15617;DHT22;7908;51.688;7.130;2023-08-30T09:44:34;18.90;99.90
15617;DHT22;7908;51.688;7.130;2023-08-30T09:47:04;18.70;99.90
15617;DHT22;7908;51.688;7.130;2023-08-30T09:49:38;18.60;99.90
15617;DHT22;7908;51.688;7.130;2023-08-30T09:52:09;18.60;99.90
15617;DHT22;7908;51.688;7.130;2023-08-30T09:54:42;18.50;99.90
15617;DHT22;7908;51.688;7.130;2023-08-30T09:57:11;18.30;99.90
15617;DHT22;7908;51.688;7.130;2023-08-30T09:59:41;18.10;99.90
15617;DHT22;7908;51.688;7.130;2023-08-30T10:02:13;17.70;99.90
15617;DHT22;7908;51.688;7.130;2023-08-30T10:04:43;17.20;99.90
15617;DHT22;7908;51.688;7.130;2023-08-30T10:07:14;17.00;99.90
15617;DHT22;7908;51.688;7.130;2023-08-30T10:09:46;16.70;99.90
15617;DHT22;7908;51.688;7.130;2023-08-30T10:12:34;16.50;99.90
15617;DHT22;7908;51.688;7.130;2023-08-30T10:15:06;16.30;99.90
15617;DHT22;7908;51.688;7.130;2023-08-30T10:17:36;16.20;99.90
15617;DHT22;7908;51.688;7.130;2023-08-30T10:20:08;16.20;99.90
15617;DHT22;7908;51.688;7.130;2023-08-30T10:22:44;16.10;99.90
15617;DHT22;7908;51.688;7.130;2023-08-30T10:25:19;16.00;99.90
15617;DHT22;7908;51.688;7.130;2023-08-30T10:27:51;16.00;99.90
15617;DHT22;7908;51.688;7.130;2023-08-30T10:30:24;15.90;99.90
15617;DHT22;7908;51.688;7.130;2023-08-30T10:32:57;15.80;99.90
15617;DHT22;7908;51.688;7.130;2023-08-30T10:35:46;15.80;99.90
15617;DHT22;7908;51.688;7.130;2023-08-30T10:38:31;15.60;99.90
15617;DHT22;7908;51.688;7.130;2023-08-30T10:41:09;15.70;99.90
15617;DHT22;7908;51.688;7.130;2023-08-30T10:43:39;15.50;99.90
15617;DHT22;7908;51.688;7.130;2023-08-30T10:46:11;15.50;99.90
15617;DHT22;7908;51.688;7.130;2023-08-30T10:48:48;15.50;99.90
15617;DHT22;7908;51.688;7.130;2023-08-30T10:51:35;15.50;99.90
15617;DHT22;7908;51.688;7.130;2023-08-30T10:54:12;15.50;99.90
15617;DHT22;7908;51.688;7.130;2023-08-30T10:56:54;15.50;99.90
15617;DHT22;7908;51.688;7.130;2023-08-30T10:59:35;15.40;99.90
15617;DHT22;7908;51.688;7.130;2023-08-30T11:02:07;15.40;99.90
15617;DHT22;7908;51.688;7.130;2023-08-30T11:04:40;15.40;99.90
15617;DHT22;7908;51.688;7.130;2023-08-30T11:07:12;15.30;99.90
15617;DHT22;7908;51.688;7.130;2023-08-30T11:09:47;15.30;99.90
15617;DHT22;7908;51.688;7.130;2023-08-30T11:12:22;15.30;99.90
15617;DHT22;7908;51.688;7.130;2023-08-30T11:14:53;15.30;99.90
15617;DHT22;7908;51.688;7.130;2023-08-30T11:17:23;15.20;99.90
15617;DHT22;7908;51.688;7.130;2023-08-30T11:19:58;15.10;99.90
15617;DHT22;7908;51.688;7.130;2023-08-30T11:22:39;15.10;99.90
15617;DHT22;7908;51.688;7.130;2023-08-30T11:25:10;15.20;99.90
15617;DHT22;7908;51.688;7.130;2023-08-30T11:27:41;15.20;99.90
15617;DHT22;7908;51.688;7.130;2023-08-30T11:30:14;15.10;99.90
15617;DHT22;7908;51.688;7.130;2023-08-30T11:32:50;15.10;99.90
15617;DHT22;7908;51.688;7.130;2023-08-30T11:35:25;15.00;99.90
15617;DHT22;7908;51.688;7.130;2023-08-30T11:37:55;14.90;99.90
15617;DHT22;7908;51.688;7.130;2023-08-30T11:40:24;15.00;99.90
15617;DHT22;7908;51.688;7.130;2023-08-30T11:43:07;14.90;99.90
15617;DHT22;7908;51.688;7.130;2023-08-30T11:45:43;14.90;99.90
15617;DHT22;7908;51.688;7.130;2023-08-30T11:48:12;14.80;99.90
15617;DHT22;7908;51.688;7.130;2023-08-30T11:50:47;14.90;99.90
15617;DHT22;7908;51.688;7.130;2023-08-30T11:53:17;15.00;99.90
15617;DHT22;7908;51.688;7.130;2023-08-30T11:55:48;15.10;99.90
15617;DHT22;7908;51.688;7.130;2023-08-30T11:58:35;15.00;99.90
15617;DHT22;7908;51.688;7.130;2023-08-30T12:01:14;15.00;99.90
15617;DHT22;7908;51.688;7.130;2023-08-30T12:03:53;15.00;99.90
15617;DHT22;7908;51.688;7.130;2023-08-30T12:06:23;15.10;99.90
15617;DHT22;7908;51.688;7.130;2023-08-30T12:08:58;15.20;99.90
15617;DHT22;7908;51.688;7.130;2023-08-30T12:11:38;15.20;99.90
15617;DHT22;7908;51.688;7.130;2023-08-30T12:14:08;15.30;99.90
15617;DHT22;7908;51.688;7.130;2023-08-30T12:16:39;15.30;99.90
15617;DHT22;7908;51.688;7.130;2023-08-30T12:19:08;15.40;99.90
15617;DHT22;7908;51.688;7.130;2023-08-30T12:21:42;15.50;99.90
15617;DHT22;7908;51.688;7.130;2023-08-30T12:24:13;15.80;99.90
15617;DHT22;7908;51.688;7.130;2023-08-30T12:26:42;15.80;99.90
15617;DHT22;7908;51.688;7.130;2023-08-30T12:29:13;15.90;99.90
15617;DHT22;7908;51.688;7.130;2023-08-30T12:31:42;15.90;99.90
15617;DHT22;7908;51.688;7.130;2023-08-30T12:34:12;15.90;99.90
15617;DHT22;7908;51.688;7.130;2023-08-30T12:36:42;15.90;99.90
15617;DHT22;7908;51.688;7.130;2023-08-30T12:39:16;15.90;99.90
15617;DHT22;7908;51.688;7.130;2023-08-30T12:41:48;16.00;99.90
15617;DHT22;7908;51.688;7.130;2023-08-30T12:44:22;16.00;99.90
15617;DHT22;7908;51.688;7.130;2023-08-30T12:46:51;16.00;99.90
15617;DHT22;7908;51.688;7.130;2023-08-30T12:49:20;16.00;99.90
15617;DHT22;7908;51.688;7.130;2023-08-30T12:51:51;15.80;99.90
15617;DHT22;7908;51.688;7.130;2023-08-30T12:54:21;15.80;99.90
15617;DHT22;7908;51.688;7.130;2023-08-30T12:56:51;15.90;99.90
15617;DHT22;7908;51.688;7.130;2023-08-30T12:59:23;15.90;99.90
15617;DHT22;7908;51.688;7.130;2023-08-30T13:01:55;15.90;99.90
15617;DHT22;7908;51.688;7.130;2023-08-30T13:04:24;15.70;99.90
15617;DHT22;7908;51.688;7.130;2023-08-30T13:06:54;15.70;99.90
15617;DHT22;7908;51.688;7.130;2023-08-30T13:09:23;15.70;99.90
15617;DHT22;7908;51.688;7.130;2023-08-30T13:11:55;15.50;99.90
15617;DHT22;7908;51.688;7.130;2023-08-30T13:14:28;15.50;99.90
15617;DHT22;7908;51.688;7.130;2023-08-30T13:17:00;15.60;99.90
15617;DHT22;7908;51.688;7.130;2023-08-30T13:19:33;15.60;99.90
15617;DHT22;7908;51.688;7.130;2023-08-30T13:22:10;15.60;99.90
15617;DHT22;7908;51.688;7.130;2023-08-30T13:24:42;15.70;99.90
15617;DHT22;7908;51.688;7.130;2023-08-30T13:27:14;15.70;99.90
15617;DHT22;7908;51.688;7.130;2023-08-30T13:29:51;15.70;99.90
15617;DHT22;7908;51.688;7.130;2023-08-30T13:32:21;15.70;99.90
15617;DHT22;7908;51.688;7.130;2023-08-30T13:34:59;15.70;99.90
15617;DHT22;7908;51.688;7.130;2023-08-30T13:37:56;15.70;99.90
15617;DHT22;7908;51.688;7.130;2023-08-30T13:40:32;15.80;99.90
15617;DHT22;7908;51.688;7.130;2023-08-30T13:43:02;15.80;99.90
15617;DHT22;7908;51.688;7.130;2023-08-30T13:45:44;15.90;99.90
15617;DHT22;7908;51.688;7.130;2023-08-30T13:48:20;16.00;99.90
15617;DHT22;7908;51.688;7.130;2023-08-30T13:50:55;16.10;99.90
15617;DHT22;7908;51.688;7.130;2023-08-30T13:53:24;16.10;99.90
15617;DHT22;7908;51.688;7.130;2023-08-30T13:55:54;16.00;99.90
15617;DHT22;7908;51.688;7.130;2023-08-30T13:58:39;15.90;99.90
15617;DHT22;7908;51.688;7.130;2023-08-30T14:01:16;15.80;99.90
15617;DHT22;7908;51.688;7.130;2023-08-30T14:03:56;15.80;99.90
15617;DHT22;7908;51.688;7.130;2023-08-30T14:06:32;15.70;99.90
15617;DHT22;7908;51.688;7.130;2023-08-30T14:09:05;15.70;99.90
15617;DHT22;7908;51.688;7.130;2023-08-30T14:11:40;15.70;99.90
15617;DHT22;7908;51.688;7.130;2023-08-30T14:14:12;15.70;99.90
15617;DHT22;7908;51.688;7.130;2023-08-30T14:16:47;15.60;99.90
15617;DHT22;7908;51.688;7.130;2023-08-30T14:19:21;15.60;99.90
15617;DHT22;7908;51.688;7.130;2023-08-30T14:22:00;15.60;99.90
15617;DHT22;7908;51.688;7.130;2023-08-30T14:24:33;15.60;99.90
15617;DHT22;7908;51.688;7.130;2023-08-30T14:27:13;15.60;99.90
15617;DHT22;7908;51.688;7.130;2023-08-30T14:29:43;15.70;99.90
15617;DHT22;7908;51.688;7.130;2023-08-30T14:32:13;15.70;99.90
15617;DHT22;7908;51.688;7.130;2023-08-30T14:34:43;15.80;99.90
15617;DHT22;7908;51.688;7.130;2023-08-30T14:37:15;15.80;99.90
15617;DHT22;7908;51.688;7.130;2023-08-30T14:39:47;15.70;99.90
15617;DHT22;7908;51.688;7.130;2023-08-30T14:42:20;15.70;99.90
15617;DHT22;7908;51.688;7.130;2023-08-30T14:44:50;15.80;99.90
15617;DHT22;7908;51.688;7.130;2023-08-30T14:47:23;15.60;99.90
15617;DHT22;7908;51.688;7.130;2023-08-30T14:49:56;15.50;99.90
15617;DHT22;7908;51.688;7.130;2023-08-30T14:52:25;15.40;99.90
15617;DHT22;7908;51.688;7.130;2023-08-30T14:55:01;15.50;99.90
15617;DHT22;7908;51.688;7.130;2023-08-30T14:57:36;15.60;99.90
15617;DHT22;7908;51.688;7.130;2023-08-30T15:00:17;15.70;99.90
15617;DHT22;7908;51.688;7.130;2023-08-30T15:02:58;15.70;99.90
15617;DHT22;7908;51.688;7.130;2023-08-30T15:05:40;15.80;99.90
15617;DHT22;7908;51.688;7.130;2023-08-30T15:08:16;15.80;99.90
15617;DHT22;7908;51.688;7.130;2023-08-30T15:10:59;15.90;99.90
15617;DHT22;7908;51.688;7.130;2023-08-30T15:13:37;15.90;99.90
15617;DHT22;7908;51.688;7.130;2023-08-30T15:16:06;15.90;99.90
15617;DHT22;7908;51.688;7.130;2023-08-30T15:18:36;15.80;99.90
15617;DHT22;7908;51.688;7.130;2023-08-30T15:21:05;15.80;99.90
15617;DHT22;7908;51.688;7.130;2023-08-30T15:23:40;15.80;99.90
15617;DHT22;7908;51.688;7.130;2023-08-30T15:26:11;15.70;99.90
15617;DHT22;7908;51.688;7.130;2023-08-30T15:28:45;15.70;99.90
15617;DHT22;7908;51.688;7.130;2023-08-30T15:31:16;15.70;99.90
15617;DHT22;7908;51.688;7.130;2023-08-30T15:33:50;15.70;99.90
15617;DHT22;7908;51.688;7.130;2023-08-30T15:36:23;15.60;99.90
15617;DHT22;7908;51.688;7.130;2023-08-30T15:38:55;15.60;99.90
15617;DHT22;7908;51.688;7.130;2023-08-30T15:41:25;15.50;99.90
15617;DHT22;7908;51.688;7.130;2023-08-30T15:44:00;15.50;99.90
15617;DHT22;7908;51.688;7.130;2023-08-30T15:46:33;15.40;99.90
15617;DHT22;7908;51.688;7.130;2023-08-30T15:49:05;15.30;99.90
15617;DHT22;7908;51.688;7.130;2023-08-30T15:51:41;15.20;99.90
15617;DHT22;7908;51.688;7.130;2023-08-30T15:54:14;15.20;99.90
15617;DHT22;7908;51.688;7.130;2023-08-30T15:56:43;15.10;99.90
15617;DHT22;7908;51.688;7.130;2023-08-30T15:59:14;15.10;99.90
15617;DHT22;7908;51.688;7.130;2023-08-30T16:01:46;15.10;99.90
15617;DHT22;7908;51.688;7.130;2023-08-30T16:04:25;15.00;99.90
15617;DHT22;7908;51.688;7.130;2023-08-30T16:06:57;14.90;99.90
15617;DHT22;7908;51.688;7.130;2023-08-30T16:09:28;14.90;99.90
15617;DHT22;7908;51.688;7.130;2023-08-30T16:11:56;14.90;99.90